KPTW/PTW METAR and TAF weather

Enter ICAO airport designator
Station Type Date Time Source
KPTW METAR 2021/09/16 21:54 UTC NOAA

KPTW 162154Z AUTO 07004KT 10SM OVC027 22/18 A3021 RMK AO2 SLP227 T02220178


Station Type Date Time Source
KPTW Decoded METAR 2021/09/16 21:54 UTC NOAA

POTTSTOWN LIMERICK AIRPORT, PA, United States (KPTW) 40-14N 075-33W 89M
Sep 16, 2021 - 05:54 PM EDT / 2021.09.16 2154 UTC
Wind: from the ENE (070 degrees) at 5 MPH (4 KT):0
Visibility: 10 mile(s):0
Sky conditions: overcast
Temperature: 72.0 F (22.2 C)
Dew Point: 64.0 F (17.8 C)
Relative Humidity: 76%
Pressure (altimeter): 30.21 in. Hg (1023 hPa)
ob: KPTW 162154Z AUTO 07004KT 10SM OVC027 22/18 A3021 RMK AO2 SLP227 T02220178
cycle: 22

Station Type Date Time Source
KPTW TAF UTC NOAA

Error!

Example: see airport list